createdAt,value
2019-04-10T00:00:12.622Z,33.63
2019-04-10T00:02:38.357Z,33.66
2019-04-10T00:05:05.021Z,33.65
2019-04-10T00:07:31.678Z,33.69
2019-04-10T00:09:59.239Z,33.72
2019-04-10T00:12:25.434Z,33.70
2019-04-10T00:14:52.540Z,33.67
2019-04-10T00:17:18.591Z,33.70
2019-04-10T00:19:45.594Z,33.74
2019-04-10T00:22:11.748Z,33.76
2019-04-10T00:24:38.378Z,33.79
2019-04-10T00:27:06.048Z,33.77
2019-04-10T00:29:32.092Z,33.77
2019-04-10T00:32:01.403Z,33.78
2019-04-10T00:34:25.422Z,33.81
2019-04-10T00:36:51.837Z,33.87
2019-04-10T00:39:18.498Z,33.88
2019-04-10T00:41:46.001Z,33.86
2019-04-10T00:44:11.891Z,33.85
2019-04-10T00:46:38.553Z,33.85
2019-04-10T00:49:05.213Z,33.87
2019-04-10T00:51:31.871Z,33.90
2019-04-10T00:53:59.328Z,33.83
2019-04-10T00:56:26.266Z,33.86
2019-04-10T00:58:51.880Z,33.84
2019-04-10T01:01:19.323Z,33.87
2019-04-10T01:03:48.052Z,33.77
2019-04-10T01:06:11.988Z,33.90
2019-04-10T01:08:38.657Z,33.88
2019-04-10T01:11:06.500Z,33.91
2019-04-10T01:13:32.705Z,33.91
2019-04-10T01:15:58.690Z,33.92
2019-04-10T01:18:25.276Z,33.94
2019-04-10T01:20:51.940Z,33.96
2019-04-10T01:23:18.635Z,33.98
2019-04-10T01:25:46.389Z,33.99
2019-04-10T01:28:12.268Z,34.04
2019-04-10T01:30:38.639Z,34.01
2019-04-10T01:33:06.152Z,34.03
2019-04-10T01:35:32.126Z,34.02
2019-04-10T01:38:02.355Z,34.01
2019-04-10T01:40:25.273Z,33.94
2019-04-10T01:43:02.691Z,33.93
2019-04-10T01:45:19.519Z,33.91
2019-04-10T01:47:45.606Z,33.94
2019-04-10T01:50:12.456Z,33.93
2019-04-10T01:52:41.462Z,33.93
2019-04-10T01:55:19.126Z,33.92
2019-04-10T01:57:34.652Z,33.86
2019-04-10T02:00:01.312Z,33.88
2019-04-10T02:02:27.969Z,33.84
2019-04-10T02:04:55.227Z,33.86
2019-04-10T02:07:22.984Z,33.86
2019-04-10T02:09:47.975Z,33.87
2019-04-10T02:12:14.694Z,33.86
2019-04-10T02:14:41.347Z,33.84
2019-04-10T02:17:08.479Z,33.82
2019-04-10T02:19:34.664Z,33.82
2019-04-10T02:22:02.359Z,33.80
2019-04-10T02:24:29.254Z,33.86
2019-04-10T02:26:54.701Z,33.85
2019-04-10T02:29:21.811Z,33.84
2019-04-10T02:31:48.516Z,33.85
2019-04-10T02:34:15.002Z,33.84
2019-04-10T02:36:42.575Z,33.89
2019-04-10T02:39:17.653Z,33.83
2019-04-10T02:41:36.296Z,33.86
2019-04-10T02:44:02.965Z,33.84
2019-04-10T02:46:29.272Z,33.87
2019-04-10T02:48:56.064Z,33.86
2019-04-10T02:51:23.025Z,33.88
2019-04-10T02:53:50.081Z,33.90
2019-04-10T02:56:15.889Z,33.89
2019-04-10T02:58:42.667Z,33.91
2019-04-10T03:01:09.322Z,33.88
2019-04-10T03:03:36.109Z,33.86
2019-04-10T03:06:02.632Z,33.81
2019-04-10T03:08:43.197Z,34.30
2019-04-10T03:11:00.431Z,34.75
2019-04-10T03:13:21.960Z,34.91
2019-04-10T03:15:49.718Z,35.16
2019-04-10T03:18:14.863Z,35.04
2019-04-10T03:20:42.607Z,35.01
2019-04-10T03:23:09.298Z,35.07
2019-04-10T03:25:35.203Z,35.05
2019-04-10T03:28:01.541Z,34.99
2019-04-10T03:30:29.754Z,35.10
2019-04-10T03:33:00.159Z,35.11
2019-04-10T03:35:21.554Z,35.20
2019-04-10T03:37:48.681Z,34.96
2019-04-10T03:40:15.360Z,34.69
2019-04-10T03:42:41.609Z,34.43
2019-04-10T03:45:11.617Z,34.29
2019-04-10T03:47:38.176Z,34.20
2019-04-10T03:50:04.823Z,34.15
2019-04-10T03:52:31.558Z,34.02
2019-04-10T03:54:58.668Z,34.15
2019-04-10T03:57:24.803Z,34.09
2019-04-10T03:59:51.842Z,34.18
2019-04-10T04:02:18.128Z,34.21
2019-04-10T04:04:45.950Z,34.12
2019-04-10T04:07:11.597Z,34.13
2019-04-10T04:09:38.261Z,34.14
2019-04-10T04:12:04.912Z,34.19
2019-04-10T04:14:32.510Z,34.13
2019-04-10T04:16:58.233Z,34.04
2019-04-10T04:19:25.847Z,34.13
2019-04-10T04:21:52.358Z,34.06
2019-04-10T04:24:19.719Z,34.28
2019-04-10T04:26:44.879Z,34.23
2019-04-10T04:29:11.524Z,34.25
2019-04-10T04:31:38.292Z,34.32
2019-04-10T04:34:06.065Z,34.36
2019-04-10T04:36:31.619Z,34.34
2019-04-10T04:38:58.277Z,34.39
2019-04-10T04:41:25.341Z,34.32
2019-04-10T04:43:51.596Z,34.35
2019-04-10T04:46:18.402Z,34.45
2019-04-10T04:48:45.343Z,34.66
2019-04-10T04:51:11.597Z,34.75
2019-04-10T04:53:38.266Z,34.82
2019-04-10T04:56:04.922Z,34.82
2019-04-10T04:58:31.603Z,34.83
2019-04-10T05:00:58.566Z,34.80
2019-04-10T05:03:25.720Z,34.78
2019-04-10T05:05:51.922Z,34.68
2019-04-10T05:08:18.335Z,34.71
2019-04-10T05:10:45.316Z,34.55
2019-04-10T05:13:11.667Z,34.62
2019-04-10T05:15:38.450Z,34.68
2019-04-10T05:18:06.235Z,34.67
2019-04-10T05:20:41.236Z,34.72
2019-04-10T05:22:59.829Z,34.72
2019-04-10T05:25:25.363Z,34.60
2019-04-10T05:27:52.118Z,34.57
2019-04-10T05:30:18.802Z,34.46
2019-04-10T05:32:45.464Z,34.21
2019-04-10T05:35:12.114Z,34.38
2019-04-10T05:37:39.992Z,34.46
2019-04-10T05:40:05.705Z,34.37
2019-04-10T05:42:33.081Z,34.34
2019-04-10T05:44:59.065Z,34.31
2019-04-10T05:47:26.195Z,34.34
2019-04-10T05:49:53.342Z,34.25
2019-04-10T05:52:20.256Z,34.17
2019-04-10T05:54:45.760Z,34.22
2019-04-10T05:57:12.481Z,34.27
2019-04-10T05:59:39.102Z,34.26
2019-04-10T06:02:06.823Z,34.22
2019-04-10T06:04:33.532Z,34.28
2019-04-10T06:06:59.168Z,34.20
2019-04-10T06:09:26.777Z,34.07
2019-04-10T06:11:53.171Z,34.08
2019-04-10T06:14:19.198Z,34.26
2019-04-10T06:16:46.071Z,34.17
2019-04-10T06:19:12.775Z,34.20
2019-04-10T06:21:39.737Z,34.10
2019-04-10T06:24:06.148Z,34.23
2019-04-10T06:26:32.865Z,34.13
2019-04-10T06:28:59.550Z,34.30
2019-04-10T06:31:26.217Z,34.30
2019-04-10T06:33:52.886Z,34.28
2019-04-10T06:36:19.683Z,34.31
2019-04-10T06:38:47.253Z,34.22
2019-04-10T06:41:15.863Z,34.30
2019-04-10T06:43:39.757Z,34.26
2019-04-10T06:46:06.515Z,34.31
2019-04-10T06:48:34.185Z,34.31
2019-04-10T06:50:59.891Z,34.30
2019-04-10T06:53:26.511Z,34.32
2019-04-10T06:55:54.359Z,34.29
2019-04-10T06:58:20.082Z,34.04
2019-04-10T07:00:51.598Z,34.13
2019-04-10T07:03:14.790Z,34.25
2019-04-10T07:05:49.480Z,34.02
2019-04-10T07:08:15.461Z,34.10
2019-04-10T07:10:45.915Z,34.30
2019-04-10T07:13:04.292Z,34.27
2019-04-10T07:15:27.347Z,34.19
2019-04-10T07:17:53.715Z,34.46
2019-04-10T07:20:21.399Z,34.37
2019-04-10T07:22:49.371Z,34.26
2019-04-10T07:25:15.503Z,34.37
2019-04-10T07:27:41.820Z,34.50
2019-04-10T07:30:07.696Z,34.42
2019-04-10T07:32:33.984Z,34.26
2019-04-10T07:35:01.839Z,34.18
2019-04-10T07:37:27.277Z,34.07
2019-04-10T07:39:55.085Z,34.14
2019-04-10T07:42:29.399Z,34.09
2019-04-10T07:44:47.297Z,34.21
2019-04-10T07:47:13.979Z,34.22
2019-04-10T07:49:41.832Z,34.15
2019-04-10T07:52:08.258Z,34.06
2019-04-10T07:54:34.961Z,33.88
2019-04-10T07:57:00.710Z,33.79
2019-04-10T07:59:27.386Z,33.66
2019-04-10T08:01:54.036Z,33.87
2019-04-10T08:04:20.716Z,33.91
2019-04-10T08:06:47.386Z,33.66
2019-04-10T08:09:14.738Z,33.64
2019-04-10T08:11:40.869Z,33.62
2019-04-10T08:14:08.440Z,33.56
2019-04-10T08:16:34.923Z,33.52
2019-04-10T08:19:01.873Z,33.46
2019-04-10T08:21:27.524Z,33.39
2019-04-10T08:23:54.897Z,33.39
2019-04-10T08:26:21.396Z,33.35
2019-04-10T08:28:47.644Z,33.12
2019-04-10T08:31:14.937Z,33.04
2019-04-10T08:33:41.990Z,33.16
2019-04-10T08:36:07.887Z,32.80
2019-04-10T08:38:34.578Z,32.46
2019-04-10T08:41:01.241Z,33.01
2019-04-10T08:43:27.951Z,33.08
2019-04-10T08:45:55.125Z,33.10
2019-04-10T08:48:21.962Z,32.20
2019-04-10T08:50:47.957Z,32.79
2019-04-10T08:53:15.888Z,32.36
2019-04-10T08:55:42.103Z,32.25
2019-04-10T08:58:08.371Z,32.13
2019-04-10T09:00:34.640Z,32.44
2019-04-10T09:03:02.428Z,31.96
2019-04-10T09:05:28.216Z,32.40
2019-04-10T09:07:54.863Z,32.29
2019-04-10T09:10:22.582Z,32.54
2019-04-10T09:12:49.188Z,32.03
2019-04-10T09:15:15.955Z,31.73
2019-04-10T09:17:41.783Z,31.60
2019-04-10T09:20:08.811Z,31.59
2019-04-10T09:22:55.139Z,31.45
2019-04-10T09:25:02.853Z,31.67
2019-04-10T09:27:28.953Z,31.69
2019-04-10T09:29:56.343Z,31.84
2019-04-10T09:32:22.298Z,31.52
2019-04-10T09:34:52.080Z,31.31
2019-04-10T09:37:18.325Z,31.40
2019-04-10T09:39:44.973Z,31.40
2019-04-10T09:42:11.749Z,30.84
2019-04-10T09:44:38.412Z,30.56
2019-04-10T09:47:05.530Z,30.85
2019-04-10T09:49:38.914Z,30.78
2019-04-10T09:51:58.637Z,30.82
2019-04-10T09:54:25.938Z,30.83
2019-04-10T09:56:52.758Z,30.71
2019-04-10T09:59:18.433Z,30.25
2019-04-10T10:01:45.095Z,30.70
2019-04-10T10:04:11.805Z,30.79
2019-04-10T10:06:39.509Z,30.89
2019-04-10T10:09:06.191Z,30.87
2019-04-10T10:11:31.786Z,30.97
2019-04-10T10:13:58.522Z,30.93
2019-04-10T10:16:25.484Z,30.93
2019-04-10T10:18:52.003Z,30.99
2019-04-10T10:21:18.709Z,30.93
2019-04-10T10:23:46.390Z,30.85
2019-04-10T10:26:12.087Z,30.81
2019-04-10T10:28:39.517Z,30.89
2019-04-10T10:31:06.220Z,30.91
2019-04-10T10:33:32.001Z,30.92
2019-04-10T10:35:59.540Z,31.00
2019-04-10T10:38:25.427Z,30.75
2019-04-10T10:40:52.861Z,30.84
2019-04-10T10:43:18.820Z,30.70
2019-04-10T10:45:45.474Z,30.83
2019-04-10T10:48:12.168Z,30.77
2019-04-10T10:50:39.527Z,30.77
2019-04-10T10:53:06.133Z,30.65
2019-04-10T10:55:32.253Z,30.68
2019-04-10T10:57:59.673Z,30.85
2019-04-10T11:00:25.578Z,30.77
2019-04-10T11:02:53.729Z,30.73
2019-04-10T11:05:19.398Z,30.78
2019-04-10T11:07:47.059Z,30.85
2019-04-10T11:10:12.905Z,30.75
2019-04-10T11:12:39.672Z,30.63
2019-04-10T11:15:06.352Z,30.67
2019-04-10T11:17:34.234Z,30.60
2019-04-10T11:19:59.704Z,30.59
2019-04-10T11:22:26.560Z,30.62
2019-04-10T11:24:53.349Z,30.79
2019-04-10T11:27:20.054Z,30.57
2019-04-10T11:29:46.760Z,30.68
2019-04-10T11:32:14.385Z,30.82
2019-04-10T11:34:40.730Z,30.92
2019-04-10T11:37:20.249Z,30.89
2019-04-10T11:39:35.267Z,30.89
2019-04-10T11:41:59.748Z,30.93
2019-04-10T11:44:27.504Z,30.92
2019-04-10T11:46:56.182Z,31.13
2019-04-10T11:49:22.128Z,31.30
2019-04-10T11:51:48.150Z,31.28
2019-04-10T11:54:15.296Z,31.24
2019-04-10T11:56:39.913Z,31.29
2019-04-10T11:59:09.161Z,31.27
2019-04-10T12:01:35.926Z,31.28
2019-04-10T12:04:00.390Z,31.30
2019-04-10T12:06:29.761Z,31.25
2019-04-10T12:09:16.314Z,31.34
2019-04-10T12:11:21.440Z,31.10
2019-04-10T12:13:48.225Z,31.35
2019-04-10T12:16:14.757Z,31.36
2019-04-10T12:18:40.599Z,31.15
2019-04-10T12:21:07.370Z,31.23
2019-04-10T12:23:34.749Z,31.28
2019-04-10T12:26:01.261Z,31.28
2019-04-10T12:28:27.719Z,31.31
2019-04-10T12:30:53.841Z,31.33
2019-04-10T12:33:21.280Z,31.28
2019-04-10T12:35:47.780Z,31.45
2019-04-10T12:38:15.024Z,31.50
2019-04-10T12:40:40.651Z,31.50
2019-04-10T12:43:08.468Z,31.51
2019-04-10T12:45:34.283Z,31.57
2019-04-10T12:48:02.013Z,31.39
2019-04-10T12:50:28.689Z,31.61
2019-04-10T12:52:54.749Z,31.51
2019-04-10T12:55:21.300Z,31.62
2019-04-10T12:57:48.003Z,31.68
2019-04-10T13:00:15.891Z,31.72
2019-04-10T13:02:42.661Z,31.79
2019-04-10T13:05:09.147Z,31.81
2019-04-10T13:07:35.725Z,31.81
2019-04-10T13:10:02.566Z,31.79
2019-04-10T13:12:29.214Z,31.74
2019-04-10T13:14:54.952Z,31.65
2019-04-10T13:17:22.457Z,31.69
2019-04-10T13:19:49.201Z,31.73
2019-04-10T13:22:15.927Z,31.68
2019-04-10T13:24:41.875Z,31.75
2019-04-10T13:27:08.541Z,31.92
2019-04-10T13:29:36.326Z,31.90
2019-04-10T13:32:01.904Z,31.79
2019-04-10T13:34:29.100Z,31.89
2019-04-10T13:36:55.695Z,31.95
2019-04-10T13:39:22.443Z,31.66
2019-04-10T13:41:48.582Z,31.92
2019-04-10T13:44:16.314Z,32.03
2019-04-10T13:46:42.640Z,31.89
2019-04-10T13:49:09.437Z,31.68
2019-04-10T13:51:35.456Z,31.92
2019-04-10T13:54:02.117Z,32.11
2019-04-10T13:56:28.858Z,32.34
2019-04-10T13:58:56.301Z,32.37
2019-04-10T14:01:23.066Z,32.06
2019-04-10T14:03:48.929Z,32.21
2019-04-10T14:06:15.574Z,32.16
2019-04-10T14:09:04.080Z,32.31
2019-04-10T14:11:09.058Z,32.27
2019-04-10T14:13:35.947Z,32.36
2019-04-10T14:16:02.383Z,32.39
2019-04-10T14:18:29.028Z,32.38
2019-04-10T14:20:55.708Z,32.36
2019-04-10T14:23:22.384Z,32.45
2019-04-10T14:25:49.786Z,32.30
2019-04-10T14:28:16.584Z,32.28
2019-04-10T14:30:43.213Z,32.34
2019-04-10T14:33:09.152Z,32.24
2019-04-10T14:35:36.028Z,32.23
2019-04-10T14:38:03.050Z,32.40
2019-04-10T14:40:30.390Z,32.17
2019-04-10T14:42:56.041Z,32.28
2019-04-10T14:45:23.574Z,32.35
2019-04-10T14:47:49.819Z,32.19
2019-04-10T14:50:16.072Z,32.33
2019-04-10T14:52:43.353Z,32.29
2019-04-10T14:55:10.360Z,32.36
2019-04-10T14:57:36.945Z,32.41
2019-04-10T15:00:02.727Z,32.36
2019-04-10T15:02:30.545Z,32.40
2019-04-10T15:04:56.119Z,32.43
2019-04-10T15:07:22.797Z,32.32
2019-04-10T15:09:49.438Z,32.28
2019-04-10T15:12:16.403Z,32.26
2019-04-10T15:14:43.667Z,32.22
2019-04-10T15:17:09.854Z,32.31
2019-04-10T15:19:36.443Z,32.14
2019-04-10T15:22:03.261Z,32.04
2019-04-10T15:24:29.647Z,32.08
2019-04-10T15:26:57.176Z,32.18
2019-04-10T15:29:22.982Z,32.02
2019-04-10T15:31:50.238Z,31.99
2019-04-10T15:34:16.313Z,32.03
2019-04-10T15:36:44.704Z,31.98
2019-04-10T15:39:10.594Z,31.88
2019-04-10T15:41:36.292Z,31.82
2019-04-10T15:44:02.943Z,31.85
2019-04-10T15:46:29.616Z,31.95
2019-04-10T15:48:56.267Z,31.79
2019-04-10T15:51:22.919Z,31.85
2019-04-10T15:53:49.630Z,31.83
2019-04-10T15:56:16.289Z,31.84
2019-04-10T15:58:43.806Z,31.85
2019-04-10T16:01:09.821Z,31.87
2019-04-10T16:03:36.684Z,31.92
2019-04-10T16:06:03.902Z,31.90
2019-04-10T16:08:29.683Z,31.87
2019-04-10T16:10:57.246Z,31.97
2019-04-10T16:13:24.004Z,31.96
2019-04-10T16:15:50.485Z,32.08
2019-04-10T16:18:16.378Z,32.06
2019-04-10T16:20:43.242Z,32.08
2019-04-10T16:23:10.061Z,32.06
2019-04-10T16:25:36.350Z,32.15
2019-04-10T16:28:04.030Z,32.14
2019-04-10T16:30:30.613Z,32.18
2019-04-10T16:32:56.560Z,32.21
2019-04-10T16:35:23.156Z,32.19
2019-04-10T16:37:49.676Z,32.28
2019-04-10T16:40:16.380Z,32.33
2019-04-10T16:42:43.649Z,32.47
2019-04-10T16:45:10.178Z,32.45
2019-04-10T16:47:36.569Z,32.44
2019-04-10T16:50:03.513Z,32.52
2019-04-10T16:52:29.772Z,32.60
2019-04-10T16:54:57.546Z,32.63
2019-04-10T16:57:23.156Z,32.65
2019-04-10T16:59:50.905Z,32.73
2019-04-10T17:02:16.565Z,32.80
2019-04-10T17:04:43.760Z,32.80
2019-04-10T17:07:10.585Z,32.81
2019-04-10T17:09:36.621Z,32.89
2019-04-10T17:12:03.973Z,32.96
2019-04-10T17:14:31.314Z,32.96
2019-04-10T17:16:57.782Z,33.04
2019-04-10T17:19:23.704Z,33.06
2019-04-10T17:21:50.063Z,33.13
2019-04-10T17:24:17.427Z,33.16
2019-04-10T17:26:43.473Z,33.19
2019-04-10T17:29:09.887Z,33.22
2019-04-10T17:31:36.592Z,33.27
2019-04-10T17:34:03.265Z,33.32
2019-04-10T17:36:29.914Z,33.26
2019-04-10T17:38:56.607Z,33.35
2019-04-10T17:41:23.822Z,33.46
2019-04-10T17:43:50.016Z,33.40
2019-04-10T17:46:17.336Z,33.50
2019-04-10T17:48:44.149Z,33.53
2019-04-10T17:51:10.037Z,33.55
2019-04-10T17:53:37.741Z,33.66
2019-04-10T17:56:04.679Z,33.65
2019-04-10T17:58:30.029Z,33.66
2019-04-10T18:00:57.761Z,33.68
2019-04-10T18:03:23.515Z,33.74
2019-04-10T18:05:50.938Z,33.65
2019-04-10T18:08:16.765Z,33.78
2019-04-10T18:10:49.558Z,33.78
2019-04-10T18:13:11.404Z,33.82
2019-04-10T18:15:37.806Z,33.87
2019-04-10T18:18:03.429Z,33.92
2019-04-10T18:20:30.106Z,33.88
2019-04-10T18:22:56.876Z,33.88
2019-04-10T18:25:23.526Z,33.95
2019-04-10T18:27:50.245Z,33.91
2019-04-10T18:30:16.890Z,33.90
2019-04-10T18:32:43.552Z,33.87
2019-04-10T18:35:10.933Z,33.88
2019-04-10T18:37:37.110Z,33.92
2019-04-10T18:40:03.546Z,33.91
2019-04-10T18:42:30.872Z,33.98
2019-04-10T18:44:57.485Z,33.88
2019-04-10T18:47:23.565Z,33.94
2019-04-10T18:49:50.226Z,33.90
2019-04-10T18:52:17.119Z,33.89
2019-04-10T18:54:43.644Z,33.88
2019-04-10T18:57:10.430Z,33.89
2019-04-10T18:59:36.910Z,33.90
2019-04-10T19:02:03.550Z,33.87
2019-04-10T19:04:30.720Z,33.85
2019-04-10T19:06:56.860Z,33.94
2019-04-10T19:09:27.520Z,33.91
2019-04-10T19:11:50.567Z,33.86
2019-04-10T19:14:16.902Z,33.85
2019-04-10T19:16:43.615Z,33.84
2019-04-10T19:19:10.455Z,33.88
2019-04-10T19:21:37.702Z,33.91
2019-04-10T19:24:03.677Z,33.84
2019-04-10T19:26:31.271Z,33.79
2019-04-10T19:28:57.158Z,33.76
2019-04-10T19:31:24.600Z,33.87
2019-04-10T19:33:51.182Z,33.79
2019-04-10T19:36:17.466Z,33.81
2019-04-10T19:38:43.575Z,33.78
2019-04-10T19:41:23.323Z,33.72
2019-04-10T19:43:37.984Z,33.80
2019-04-10T19:46:04.096Z,33.74
2019-04-10T19:48:31.000Z,33.79
2019-04-10T19:50:57.476Z,33.71
2019-04-10T19:53:24.754Z,33.72
2019-04-10T19:55:50.362Z,33.79
2019-04-10T19:58:17.683Z,33.82
2019-04-10T20:00:44.374Z,33.75
2019-04-10T20:03:11.176Z,33.79
2019-04-10T20:05:37.314Z,33.79
2019-04-10T20:08:03.776Z,33.80
2019-04-10T20:10:30.422Z,33.77
2019-04-10T20:12:57.282Z,33.84
2019-04-10T20:15:24.702Z,33.80
2019-04-10T20:17:50.559Z,33.86
2019-04-10T20:20:17.321Z,33.97
2019-04-10T20:22:43.953Z,33.83
2019-04-10T20:25:10.552Z,33.91
2019-04-10T20:27:38.237Z,33.88
2019-04-10T20:30:03.882Z,33.85
2019-04-10T20:32:30.546Z,33.42
2019-04-10T20:34:58.040Z,33.76
2019-04-10T20:37:24.826Z,33.87
2019-04-10T20:39:51.626Z,33.85
2019-04-10T20:42:18.155Z,33.81
2019-04-10T20:44:44.946Z,33.86
2019-04-10T20:47:10.907Z,33.91
2019-04-10T20:49:38.369Z,33.85
2019-04-10T20:52:04.191Z,33.86
2019-04-10T20:54:30.891Z,33.95
2019-04-10T20:56:57.360Z,33.90
2019-04-10T20:59:24.383Z,33.92
2019-04-10T21:01:50.657Z,33.94
2019-04-10T21:04:17.325Z,33.93
2019-04-10T21:06:43.997Z,33.97
2019-04-10T21:09:11.775Z,33.95
2019-04-10T21:11:37.697Z,33.94
2019-04-10T21:14:05.110Z,33.95
2019-04-10T21:16:31.514Z,33.94
2019-04-10T21:18:57.375Z,33.92
2019-04-10T21:21:24.325Z,33.91
2019-04-10T21:23:50.705Z,33.88
2019-04-10T21:26:19.823Z,33.83
2019-04-10T21:28:44.048Z,33.88
2019-04-10T21:31:11.694Z,33.88
2019-04-10T21:33:37.366Z,33.87
2019-04-10T21:36:04.028Z,33.93
2019-04-10T21:38:30.767Z,33.89
2019-04-10T21:40:57.447Z,33.90
2019-04-10T21:43:24.079Z,33.96
2019-04-10T21:45:51.774Z,33.97
2019-04-10T21:48:17.522Z,33.99
2019-04-10T21:50:44.232Z,33.95
2019-04-10T21:53:10.900Z,33.98
2019-04-10T21:55:37.575Z,33.99
2019-04-10T21:58:04.231Z,33.94
2019-04-10T22:00:32.988Z,33.89
2019-04-10T22:02:57.648Z,33.85
2019-04-10T22:05:24.297Z,33.83
2019-04-10T22:07:50.958Z,33.79
2019-04-10T22:10:17.668Z,33.81
2019-04-10T22:12:47.711Z,33.83
2019-04-10T22:15:13.161Z,33.79
2019-04-10T22:17:40.496Z,33.77
2019-04-10T22:20:07.492Z,33.76
2019-04-10T22:22:33.151Z,33.80
2019-04-10T22:24:59.814Z,33.73
2019-04-10T22:27:27.343Z,33.73
2019-04-10T22:29:54.156Z,33.70
2019-04-10T22:32:19.927Z,33.72
2019-04-10T22:34:46.588Z,33.72
2019-04-10T22:37:15.443Z,33.71
2019-04-10T22:39:39.914Z,33.66
2019-04-10T22:42:07.510Z,33.69
2019-04-10T22:44:39.000Z,33.71
2019-04-10T22:47:00.939Z,33.65
2019-04-10T22:49:26.671Z,33.61
2019-04-10T22:51:53.854Z,33.72
2019-04-10T22:54:19.965Z,33.62
2019-04-10T22:56:47.688Z,33.56
2019-04-10T22:59:13.565Z,33.50
2019-04-10T23:01:39.926Z,33.52
2019-04-10T23:04:06.589Z,33.50
2019-04-10T23:06:33.342Z,33.51
2019-04-10T23:09:00.141Z,33.54
2019-04-10T23:11:31.679Z,33.52
2019-04-10T23:13:54.182Z,33.52
2019-04-10T23:16:19.977Z,33.48
2019-04-10T23:18:47.693Z,33.45
2019-04-10T23:21:14.407Z,33.41
2019-04-10T23:23:41.099Z,33.45
2019-04-10T23:26:06.928Z,33.35
2019-04-10T23:28:33.751Z,33.42
2019-04-10T23:30:59.895Z,33.40
2019-04-10T23:33:26.607Z,33.30
2019-04-10T23:35:53.811Z,33.34
2019-04-10T23:38:19.997Z,33.26
2019-04-10T23:40:47.278Z,33.29
2019-04-10T23:43:16.535Z,33.36
2019-04-10T23:45:40.027Z,33.36
2019-04-10T23:48:06.755Z,33.39
2019-04-10T23:50:34.401Z,33.43
2019-04-10T23:53:00.316Z,33.38
2019-04-10T23:55:26.701Z,33.33
2019-04-10T23:57:53.719Z,33.39
